sensor_id;sensor_type;location;lat;lon;timestamp;P1;durP1;ratioP1;P2;durP2;ratioP2
76576;SDS011;65441;44.748;37.600;2023-05-07T00:00:05;8.68;;;2.00;;
76576;SDS011;65441;44.748;37.600;2023-05-07T00:02:36;12.98;;;2.22;;
76576;SDS011;65441;44.748;37.600;2023-05-07T00:05:07;7.88;;;2.10;;
76576;SDS011;65441;44.748;37.600;2023-05-07T00:07:36;10.02;;;2.42;;
76576;SDS011;65441;44.748;37.600;2023-05-07T00:10:06;12.20;;;2.20;;
76576;SDS011;65441;44.748;37.600;2023-05-07T00:12:36;14.15;;;2.60;;
76576;SDS011;65441;44.748;37.600;2023-05-07T00:15:05;12.98;;;2.10;;
76576;SDS011;65441;44.748;37.600;2023-05-07T00:17:35;13.95;;;2.10;;
76576;SDS011;65441;44.748;37.600;2023-05-07T00:20:05;6.43;;;1.58;;
76576;SDS011;65441;44.748;37.600;2023-05-07T00:22:36;13.05;;;2.45;;
76576;SDS011;65441;44.748;37.600;2023-05-07T00:25:05;9.30;;;1.80;;
76576;SDS011;65441;44.748;37.600;2023-05-07T00:27:35;10.88;;;1.98;;
76576;SDS011;65441;44.748;37.600;2023-05-07T00:30:04;7.68;;;2.13;;
76576;SDS011;65441;44.748;37.600;2023-05-07T00:32:35;10.38;;;2.17;;
76576;SDS011;65441;44.748;37.600;2023-05-07T00:35:04;8.45;;;1.92;;
76576;SDS011;65441;44.748;37.600;2023-05-07T00:37:36;11.05;;;1.90;;
76576;SDS011;65441;44.748;37.600;2023-05-07T00:40:05;9.50;;;2.13;;
76576;SDS011;65441;44.748;37.600;2023-05-07T00:42:35;18.70;;;2.50;;
76576;SDS011;65441;44.748;37.600;2023-05-07T00:45:05;10.65;;;2.08;;
76576;SDS011;65441;44.748;37.600;2023-05-07T00:47:35;7.47;;;1.63;;
76576;SDS011;65441;44.748;37.600;2023-05-07T00:50:05;7.85;;;1.83;;
76576;SDS011;65441;44.748;37.600;2023-05-07T00:52:37;6.60;;;1.70;;
76576;SDS011;65441;44.748;37.600;2023-05-07T00:55:07;9.57;;;1.98;;
76576;SDS011;65441;44.748;37.600;2023-05-07T00:57:36;10.00;;;2.00;;
76576;SDS011;65441;44.748;37.600;2023-05-07T01:00:08;7.63;;;1.70;;
76576;SDS011;65441;44.748;37.600;2023-05-07T01:02:39;4.68;;;1.40;;
76576;SDS011;65441;44.748;37.600;2023-05-07T01:05:11;9.27;;;1.95;;
76576;SDS011;65441;44.748;37.600;2023-05-07T01:07:42;9.77;;;2.00;;
76576;SDS011;65441;44.748;37.600;2023-05-07T01:10:12;9.40;;;2.05;;
76576;SDS011;65441;44.748;37.600;2023-05-07T01:12:42;8.00;;;1.52;;
76576;SDS011;65441;44.748;37.600;2023-05-07T01:15:13;8.30;;;1.58;;
76576;SDS011;65441;44.748;37.600;2023-05-07T01:17:43;6.05;;;1.70;;
76576;SDS011;65441;44.748;37.600;2023-05-07T01:20:20;6.50;;;1.90;;
76576;SDS011;65441;44.748;37.600;2023-05-07T01:22:54;7.65;;;1.70;;
76576;SDS011;65441;44.748;37.600;2023-05-07T01:25:24;8.32;;;1.88;;
76576;SDS011;65441;44.748;37.600;2023-05-07T01:27:57;7.45;;;1.80;;
76576;SDS011;65441;44.748;37.600;2023-05-07T01:30:29;6.53;;;1.65;;
76576;SDS011;65441;44.748;37.600;2023-05-07T01:33:04;9.07;;;1.80;;
76576;SDS011;65441;44.748;37.600;2023-05-07T01:35:37;6.05;;;1.80;;
76576;SDS011;65441;44.748;37.600;2023-05-07T01:38:11;8.75;;;2.10;;
76576;SDS011;65441;44.748;37.600;2023-05-07T01:40:41;7.78;;;1.80;;
76576;SDS011;65441;44.748;37.600;2023-05-07T01:43:11;6.82;;;1.85;;
76576;SDS011;65441;44.748;37.600;2023-05-07T01:45:40;10.88;;;1.90;;
76576;SDS011;65441;44.748;37.600;2023-05-07T01:48:11;6.60;;;1.60;;
76576;SDS011;65441;44.748;37.600;2023-05-07T01:50:42;6.20;;;1.98;;
76576;SDS011;65441;44.748;37.600;2023-05-07T01:53:14;5.90;;;1.70;;
76576;SDS011;65441;44.748;37.600;2023-05-07T01:55:43;6.25;;;1.73;;
76576;SDS011;65441;44.748;37.600;2023-05-07T01:58:12;8.70;;;1.92;;
76576;SDS011;65441;44.748;37.600;2023-05-07T02:00:41;8.35;;;1.80;;
76576;SDS011;65441;44.748;37.600;2023-05-07T02:03:11;5.28;;;1.77;;
76576;SDS011;65441;44.748;37.600;2023-05-07T02:05:47;6.10;;;2.00;;
76576;SDS011;65441;44.748;37.600;2023-05-07T02:08:26;7.13;;;1.88;;
76576;SDS011;65441;44.748;37.600;2023-05-07T02:10:55;6.30;;;1.70;;
76576;SDS011;65441;44.748;37.600;2023-05-07T02:13:26;6.80;;;1.70;;
76576;SDS011;65441;44.748;37.600;2023-05-07T02:15:57;10.27;;;2.10;;
76576;SDS011;65441;44.748;37.600;2023-05-07T02:18:28;8.88;;;1.95;;
76576;SDS011;65441;44.748;37.600;2023-05-07T02:20:57;9.35;;;1.77;;
76576;SDS011;65441;44.748;37.600;2023-05-07T02:23:27;7.80;;;1.88;;
76576;SDS011;65441;44.748;37.600;2023-05-07T02:25:56;6.55;;;1.52;;
76576;SDS011;65441;44.748;37.600;2023-05-07T02:28:25;6.75;;;1.63;;
76576;SDS011;65441;44.748;37.600;2023-05-07T02:30:59;8.25;;;1.70;;
76576;SDS011;65441;44.748;37.600;2023-05-07T02:33:30;5.78;;;1.50;;
76576;SDS011;65441;44.748;37.600;2023-05-07T02:36:05;6.65;;;1.65;;
76576;SDS011;65441;44.748;37.600;2023-05-07T02:38:37;8.20;;;1.63;;
76576;SDS011;65441;44.748;37.600;2023-05-07T02:41:07;6.88;;;1.73;;
76576;SDS011;65441;44.748;37.600;2023-05-07T02:43:38;6.97;;;1.67;;
76576;SDS011;65441;44.748;37.600;2023-05-07T02:46:08;3.88;;;1.45;;
76576;SDS011;65441;44.748;37.600;2023-05-07T02:51:10;3.50;;;1.35;;
76576;SDS011;65441;44.748;37.600;2023-05-07T02:53:44;5.53;;;1.85;;
76576;SDS011;65441;44.748;37.600;2023-05-07T02:56:14;5.28;;;1.63;;
76576;SDS011;65441;44.748;37.600;2023-05-07T02:58:43;6.22;;;1.80;;
76576;SDS011;65441;44.748;37.600;2023-05-07T03:01:13;6.35;;;2.00;;
76576;SDS011;65441;44.748;37.600;2023-05-07T03:03:52;5.28;;;1.58;;
76576;SDS011;65441;44.748;37.600;2023-05-07T03:06:21;7.75;;;1.75;;
76576;SDS011;65441;44.748;37.600;2023-05-07T03:08:52;5.53;;;1.50;;
76576;SDS011;65441;44.748;37.600;2023-05-07T03:11:21;5.55;;;1.90;;
76576;SDS011;65441;44.748;37.600;2023-05-07T03:13:50;5.40;;;2.20;;
76576;SDS011;65441;44.748;37.600;2023-05-07T03:16:20;6.05;;;1.52;;
76576;SDS011;65441;44.748;37.600;2023-05-07T03:18:49;5.95;;;1.52;;
76576;SDS011;65441;44.748;37.600;2023-05-07T03:21:18;7.18;;;1.65;;
76576;SDS011;65441;44.748;37.600;2023-05-07T03:23:47;7.68;;;1.77;;
76576;SDS011;65441;44.748;37.600;2023-05-07T03:26:18;5.85;;;1.98;;
76576;SDS011;65441;44.748;37.600;2023-05-07T03:28:47;8.18;;;1.75;;
76576;SDS011;65441;44.748;37.600;2023-05-07T03:31:18;7.47;;;1.85;;
76576;SDS011;65441;44.748;37.600;2023-05-07T03:33:50;4.70;;;1.75;;
76576;SDS011;65441;44.748;37.600;2023-05-07T03:36:20;6.65;;;1.67;;
76576;SDS011;65441;44.748;37.600;2023-05-07T03:38:49;3.95;;;1.35;;
76576;SDS011;65441;44.748;37.600;2023-05-07T03:41:22;5.85;;;1.40;;
76576;SDS011;65441;44.748;37.600;2023-05-07T03:43:52;6.47;;;1.80;;
76576;SDS011;65441;44.748;37.600;2023-05-07T03:46:21;6.35;;;1.75;;
76576;SDS011;65441;44.748;37.600;2023-05-07T03:48:53;4.43;;;1.70;;
76576;SDS011;65441;44.748;37.600;2023-05-07T03:51:22;5.97;;;1.77;;
76576;SDS011;65441;44.748;37.600;2023-05-07T03:53:51;7.10;;;1.38;;
76576;SDS011;65441;44.748;37.600;2023-05-07T03:56:23;6.78;;;2.00;;
76576;SDS011;65441;44.748;37.600;2023-05-07T03:58:55;5.53;;;1.80;;
76576;SDS011;65441;44.748;37.600;2023-05-07T04:01:24;9.18;;;1.90;;
76576;SDS011;65441;44.748;37.600;2023-05-07T04:03:55;6.93;;;1.40;;
76576;SDS011;65441;44.748;37.600;2023-05-07T04:06:25;5.60;;;1.77;;
76576;SDS011;65441;44.748;37.600;2023-05-07T04:08:54;5.60;;;1.60;;
76576;SDS011;65441;44.748;37.600;2023-05-07T04:11:25;4.93;;;1.63;;
76576;SDS011;65441;44.748;37.600;2023-05-07T04:13:55;6.80;;;1.50;;
76576;SDS011;65441;44.748;37.600;2023-05-07T04:16:25;6.82;;;2.17;;
76576;SDS011;65441;44.748;37.600;2023-05-07T04:18:54;5.05;;;1.33;;
76576;SDS011;65441;44.748;37.600;2023-05-07T04:21:23;4.95;;;1.48;;
76576;SDS011;65441;44.748;37.600;2023-05-07T04:23:53;5.93;;;1.27;;
76576;SDS011;65441;44.748;37.600;2023-05-07T04:26:22;4.68;;;1.63;;
76576;SDS011;65441;44.748;37.600;2023-05-07T04:28:53;7.57;;;1.90;;
76576;SDS011;65441;44.748;37.600;2023-05-07T04:31:22;6.00;;;1.50;;
76576;SDS011;65441;44.748;37.600;2023-05-07T04:33:54;8.18;;;1.63;;
76576;SDS011;65441;44.748;37.600;2023-05-07T04:36:26;7.97;;;1.52;;
76576;SDS011;65441;44.748;37.600;2023-05-07T04:39:10;3.58;;;1.35;;
76576;SDS011;65441;44.748;37.600;2023-05-07T04:41:42;8.95;;;1.98;;
76576;SDS011;65441;44.748;37.600;2023-05-07T04:44:13;5.78;;;1.55;;
76576;SDS011;65441;44.748;37.600;2023-05-07T04:46:44;5.40;;;1.60;;
76576;SDS011;65441;44.748;37.600;2023-05-07T04:49:13;5.32;;;1.70;;
76576;SDS011;65441;44.748;37.600;2023-05-07T04:51:42;3.25;;;0.65;;
76576;SDS011;65441;44.748;37.600;2023-05-07T04:54:12;6.95;;;1.73;;
76576;SDS011;65441;44.748;37.600;2023-05-07T04:56:41;4.97;;;1.23;;
76576;SDS011;65441;44.748;37.600;2023-05-07T04:59:10;4.82;;;1.52;;
76576;SDS011;65441;44.748;37.600;2023-05-07T05:01:41;5.53;;;1.50;;
76576;SDS011;65441;44.748;37.600;2023-05-07T05:04:10;6.15;;;1.52;;
76576;SDS011;65441;44.748;37.600;2023-05-07T05:06:40;5.32;;;1.50;;
76576;SDS011;65441;44.748;37.600;2023-05-07T05:09:11;5.63;;;1.50;;
76576;SDS011;65441;44.748;37.600;2023-05-07T05:11:42;5.10;;;1.70;;
76576;SDS011;65441;44.748;37.600;2023-05-07T05:14:11;5.88;;;1.50;;
76576;SDS011;65441;44.748;37.600;2023-05-07T05:16:42;8.38;;;1.42;;
76576;SDS011;65441;44.748;37.600;2023-05-07T05:19:11;5.97;;;1.60;;
76576;SDS011;65441;44.748;37.600;2023-05-07T05:21:41;6.47;;;1.88;;
76576;SDS011;65441;44.748;37.600;2023-05-07T05:24:11;4.55;;;1.60;;
76576;SDS011;65441;44.748;37.600;2023-05-07T05:26:40;5.95;;;1.80;;
76576;SDS011;65441;44.748;37.600;2023-05-07T05:29:09;6.00;;;1.58;;
76576;SDS011;65441;44.748;37.600;2023-05-07T05:31:42;4.75;;;1.38;;
76576;SDS011;65441;44.748;37.600;2023-05-07T05:34:11;5.45;;;1.58;;
76576;SDS011;65441;44.748;37.600;2023-05-07T05:36:41;4.15;;;1.42;;
76576;SDS011;65441;44.748;37.600;2023-05-07T05:39:11;3.95;;;1.48;;
76576;SDS011;65441;44.748;37.600;2023-05-07T05:41:41;5.97;;;1.40;;
76576;SDS011;65441;44.748;37.600;2023-05-07T05:44:10;4.97;;;1.52;;
76576;SDS011;65441;44.748;37.600;2023-05-07T05:46:39;5.03;;;1.70;;
76576;SDS011;65441;44.748;37.600;2023-05-07T05:49:09;7.60;;;1.73;;
76576;SDS011;65441;44.748;37.600;2023-05-07T05:51:39;5.95;;;1.67;;
76576;SDS011;65441;44.748;37.600;2023-05-07T05:54:08;5.78;;;1.83;;
76576;SDS011;65441;44.748;37.600;2023-05-07T05:56:37;4.75;;;2.03;;
76576;SDS011;65441;44.748;37.600;2023-05-07T05:59:10;8.45;;;2.30;;
76576;SDS011;65441;44.748;37.600;2023-05-07T06:01:39;8.90;;;2.22;;
76576;SDS011;65441;44.748;37.600;2023-05-07T06:04:10;6.35;;;2.25;;
76576;SDS011;65441;44.748;37.600;2023-05-07T06:06:39;8.15;;;2.22;;
76576;SDS011;65441;44.748;37.600;2023-05-07T06:09:09;6.65;;;1.98;;
76576;SDS011;65441;44.748;37.600;2023-05-07T06:11:42;11.65;;;2.72;;
76576;SDS011;65441;44.748;37.600;2023-05-07T06:14:13;6.05;;;2.45;;
76576;SDS011;65441;44.748;37.600;2023-05-07T06:16:42;8.13;;;2.45;;
76576;SDS011;65441;44.748;37.600;2023-05-07T06:19:13;10.88;;;2.60;;
76576;SDS011;65441;44.748;37.600;2023-05-07T06:21:47;6.88;;;2.72;;
76576;SDS011;65441;44.748;37.600;2023-05-07T06:24:16;5.93;;;2.67;;
76576;SDS011;65441;44.748;37.600;2023-05-07T06:26:45;9.48;;;2.53;;
76576;SDS011;65441;44.748;37.600;2023-05-07T06:29:14;6.07;;;2.35;;
76576;SDS011;65441;44.748;37.600;2023-05-07T06:31:46;5.43;;;2.35;;
76576;SDS011;65441;44.748;37.600;2023-05-07T06:34:16;5.43;;;2.03;;
76576;SDS011;65441;44.748;37.600;2023-05-07T06:36:46;7.53;;;2.10;;
76576;SDS011;65441;44.748;37.600;2023-05-07T06:39:25;8.02;;;2.10;;
76576;SDS011;65441;44.748;37.600;2023-05-07T06:41:54;4.85;;;1.60;;
76576;SDS011;65441;44.748;37.600;2023-05-07T06:44:31;6.97;;;1.95;;
76576;SDS011;65441;44.748;37.600;2023-05-07T06:47:09;6.93;;;2.08;;
76576;SDS011;65441;44.748;37.600;2023-05-07T06:49:41;8.95;;;2.50;;
76576;SDS011;65441;44.748;37.600;2023-05-07T06:52:14;8.80;;;2.55;;
76576;SDS011;65441;44.748;37.600;2023-05-07T06:54:43;6.82;;;3.10;;
76576;SDS011;65441;44.748;37.600;2023-05-07T06:57:15;6.82;;;3.05;;
76576;SDS011;65441;44.748;37.600;2023-05-07T06:59:45;8.40;;;3.65;;
76576;SDS011;65441;44.748;37.600;2023-05-07T07:02:14;8.30;;;3.13;;
76576;SDS011;65441;44.748;37.600;2023-05-07T07:04:45;7.95;;;3.08;;
76576;SDS011;65441;44.748;37.600;2023-05-07T07:07:14;7.60;;;3.35;;
76576;SDS011;65441;44.748;37.600;2023-05-07T07:09:46;6.90;;;3.08;;
76576;SDS011;65441;44.748;37.600;2023-05-07T07:12:18;7.45;;;3.10;;
76576;SDS011;65441;44.748;37.600;2023-05-07T07:14:48;9.73;;;2.92;;
76576;SDS011;65441;44.748;37.600;2023-05-07T07:17:17;8.00;;;2.97;;
76576;SDS011;65441;44.748;37.600;2023-05-07T07:19:51;6.22;;;2.97;;
76576;SDS011;65441;44.748;37.600;2023-05-07T07:22:20;7.13;;;2.95;;
76576;SDS011;65441;44.748;37.600;2023-05-07T07:24:50;8.70;;;2.30;;
76576;SDS011;65441;44.748;37.600;2023-05-07T07:27:19;6.45;;;2.13;;
76576;SDS011;65441;44.748;37.600;2023-05-07T07:29:48;7.35;;;2.40;;
76576;SDS011;65441;44.748;37.600;2023-05-07T07:32:19;7.72;;;2.38;;
76576;SDS011;65441;44.748;37.600;2023-05-07T07:34:49;6.90;;;2.50;;
76576;SDS011;65441;44.748;37.600;2023-05-07T07:37:19;6.43;;;2.05;;
76576;SDS011;65441;44.748;37.600;2023-05-07T07:39:48;7.65;;;2.40;;
76576;SDS011;65441;44.748;37.600;2023-05-07T07:42:17;6.65;;;2.25;;
76576;SDS011;65441;44.748;37.600;2023-05-07T07:44:47;9.43;;;2.72;;
76576;SDS011;65441;44.748;37.600;2023-05-07T07:47:19;8.65;;;2.38;;
76576;SDS011;65441;44.748;37.600;2023-05-07T07:49:51;6.97;;;2.72;;
76576;SDS011;65441;44.748;37.600;2023-05-07T07:52:23;7.63;;;2.63;;
76576;SDS011;65441;44.748;37.600;2023-05-07T07:54:53;8.85;;;2.97;;
76576;SDS011;65441;44.748;37.600;2023-05-07T07:57:25;10.43;;;2.95;;
76576;SDS011;65441;44.748;37.600;2023-05-07T07:59:55;9.45;;;3.20;;
76576;SDS011;65441;44.748;37.600;2023-05-07T08:02:25;9.20;;;3.22;;
76576;SDS011;65441;44.748;37.600;2023-05-07T08:04:56;7.90;;;3.10;;
76576;SDS011;65441;44.748;37.600;2023-05-07T08:07:25;8.55;;;2.92;;
76576;SDS011;65441;44.748;37.600;2023-05-07T08:09:55;7.20;;;2.72;;
76576;SDS011;65441;44.748;37.600;2023-05-07T08:12:25;8.40;;;2.20;;
76576;SDS011;65441;44.748;37.600;2023-05-07T08:14:56;4.90;;;1.95;;
76576;SDS011;65441;44.748;37.600;2023-05-07T08:17:25;9.13;;;2.05;;
76576;SDS011;65441;44.748;37.600;2023-05-07T08:19:56;9.70;;;2.30;;
76576;SDS011;65441;44.748;37.600;2023-05-07T08:22:25;6.68;;;2.30;;
76576;SDS011;65441;44.748;37.600;2023-05-07T08:24:54;9.68;;;2.60;;
76576;SDS011;65441;44.748;37.600;2023-05-07T08:27:23;8.80;;;2.33;;
76576;SDS011;65441;44.748;37.600;2023-05-07T08:29:52;12.98;;;2.70;;
76576;SDS011;65441;44.748;37.600;2023-05-07T08:32:22;7.85;;;2.50;;
76576;SDS011;65441;44.748;37.600;2023-05-07T08:34:52;7.10;;;2.53;;
76576;SDS011;65441;44.748;37.600;2023-05-07T08:37:23;7.05;;;2.20;;
76576;SDS011;65441;44.748;37.600;2023-05-07T08:39:52;9.85;;;3.10;;
76576;SDS011;65441;44.748;37.600;2023-05-07T08:42:24;10.88;;;3.63;;
76576;SDS011;65441;44.748;37.600;2023-05-07T08:44:54;6.50;;;3.20;;
76576;SDS011;65441;44.748;37.600;2023-05-07T08:47:29;8.18;;;3.60;;
76576;SDS011;65441;44.748;37.600;2023-05-07T08:50:03;10.30;;;4.10;;
76576;SDS011;65441;44.748;37.600;2023-05-07T08:52:36;7.60;;;3.88;;
76576;SDS011;65441;44.748;37.600;2023-05-07T08:55:08;10.27;;;4.40;;
76576;SDS011;65441;44.748;37.600;2023-05-07T08:57:38;13.73;;;4.80;;
76576;SDS011;65441;44.748;37.600;2023-05-07T09:00:11;10.98;;;4.68;;
76576;SDS011;65441;44.748;37.600;2023-05-07T09:02:42;9.40;;;4.50;;
76576;SDS011;65441;44.748;37.600;2023-05-07T09:05:12;15.18;;;5.20;;
76576;SDS011;65441;44.748;37.600;2023-05-07T09:07:43;12.10;;;4.82;;
76576;SDS011;65441;44.748;37.600;2023-05-07T09:10:14;9.52;;;3.92;;
76576;SDS011;65441;44.748;37.600;2023-05-07T09:12:46;10.32;;;4.15;;
76576;SDS011;65441;44.748;37.600;2023-05-07T09:15:18;10.35;;;3.83;;
76576;SDS011;65441;44.748;37.600;2023-05-07T09:17:47;13.77;;;4.18;;
76576;SDS011;65441;44.748;37.600;2023-05-07T09:20:17;9.02;;;3.80;;
76576;SDS011;65441;44.748;37.600;2023-05-07T09:22:49;8.40;;;3.80;;
76576;SDS011;65441;44.748;37.600;2023-05-07T09:25:27;10.80;;;4.00;;
76576;SDS011;65441;44.748;37.600;2023-05-07T09:27:57;9.48;;;4.07;;
76576;SDS011;65441;44.748;37.600;2023-05-07T09:30:28;9.20;;;3.92;;
76576;SDS011;65441;44.748;37.600;2023-05-07T09:33:00;12.82;;;4.10;;
76576;SDS011;65441;44.748;37.600;2023-05-07T09:35:30;9.65;;;4.07;;
76576;SDS011;65441;44.748;37.600;2023-05-07T09:38:06;13.65;;;4.68;;
76576;SDS011;65441;44.748;37.600;2023-05-07T09:40:37;10.10;;;4.53;;
76576;SDS011;65441;44.748;37.600;2023-05-07T09:43:11;13.98;;;4.60;;
76576;SDS011;65441;44.748;37.600;2023-05-07T09:45:55;12.25;;;4.75;;
76576;SDS011;65441;44.748;37.600;2023-05-07T09:48:28;8.30;;;4.07;;
76576;SDS011;65441;44.748;37.600;2023-05-07T09:51:00;9.40;;;3.92;;
76576;SDS011;65441;44.748;37.600;2023-05-07T09:53:36;8.50;;;4.00;;
76576;SDS011;65441;44.748;37.600;2023-05-07T09:56:08;10.85;;;3.15;;
76576;SDS011;65441;44.748;37.600;2023-05-07T09:58:38;13.60;;;3.10;;
76576;SDS011;65441;44.748;37.600;2023-05-07T10:01:10;9.77;;;3.10;;
76576;SDS011;65441;44.748;37.600;2023-05-07T10:03:41;6.78;;;3.25;;
76576;SDS011;65441;44.748;37.600;2023-05-07T10:06:11;7.45;;;3.30;;
76576;SDS011;65441;44.748;37.600;2023-05-07T10:08:44;8.95;;;3.53;;
76576;SDS011;65441;44.748;37.600;2023-05-07T10:11:14;9.98;;;3.17;;
76576;SDS011;65441;44.748;37.600;2023-05-07T10:13:45;7.38;;;3.33;;
76576;SDS011;65441;44.748;37.600;2023-05-07T10:16:16;10.63;;;3.13;;
76576;SDS011;65441;44.748;37.600;2023-05-07T10:18:48;9.65;;;2.90;;
76576;SDS011;65441;44.748;37.600;2023-05-07T10:21:23;10.90;;;3.25;;
76576;SDS011;65441;44.748;37.600;2023-05-07T10:24:03;11.13;;;3.08;;
76576;SDS011;65441;44.748;37.600;2023-05-07T10:26:36;7.20;;;3.08;;
76576;SDS011;65441;44.748;37.600;2023-05-07T10:29:07;10.40;;;2.95;;
76576;SDS011;65441;44.748;37.600;2023-05-07T10:31:52;7.75;;;3.05;;
76576;SDS011;65441;44.748;37.600;2023-05-07T10:37:01;9.85;;;3.15;;
76576;SDS011;65441;44.748;37.600;2023-05-07T10:39:33;9.10;;;3.42;;
76576;SDS011;65441;44.748;37.600;2023-05-07T10:42:07;12.10;;;3.25;;
76576;SDS011;65441;44.748;37.600;2023-05-07T10:44:38;9.75;;;3.22;;
76576;SDS011;65441;44.748;37.600;2023-05-07T10:47:15;9.18;;;3.05;;
76576;SDS011;65441;44.748;37.600;2023-05-07T11:02:21;8.75;;;2.90;;
76576;SDS011;65441;44.748;37.600;2023-05-07T11:07:56;11.88;;;3.33;;
76576;SDS011;65441;44.748;37.600;2023-05-07T11:10:47;7.47;;;2.97;;
76576;SDS011;65441;44.748;37.600;2023-05-07T11:13:43;6.70;;;2.63;;
76576;SDS011;65441;44.748;37.600;2023-05-07T11:16:33;9.82;;;3.00;;
76576;SDS011;65441;44.748;37.600;2023-05-07T11:19:18;10.07;;;2.78;;
76576;SDS011;65441;44.748;37.600;2023-05-07T11:22:43;6.45;;;2.30;;
76576;SDS011;65441;44.748;37.600;2023-05-07T11:25:31;9.13;;;2.53;;
76576;SDS011;65441;44.748;37.600;2023-05-07T11:28:10;11.45;;;2.47;;
76576;SDS011;65441;44.748;37.600;2023-05-07T11:33:22;8.13;;;2.97;;
76576;SDS011;65441;44.748;37.600;2023-05-07T11:35:56;7.82;;;3.05;;
76576;SDS011;65441;44.748;37.600;2023-05-07T11:38:34;10.32;;;2.72;;
76576;SDS011;65441;44.748;37.600;2023-05-07T11:41:04;10.68;;;3.28;;
76576;SDS011;65441;44.748;37.600;2023-05-07T11:43:34;9.05;;;3.08;;
76576;SDS011;65441;44.748;37.600;2023-05-07T11:46:09;8.50;;;2.90;;
76576;SDS011;65441;44.748;37.600;2023-05-07T11:48:39;6.50;;;2.85;;
76576;SDS011;65441;44.748;37.600;2023-05-07T11:51:11;10.82;;;3.85;;
76576;SDS011;65441;44.748;37.600;2023-05-07T11:53:42;10.52;;;3.08;;
76576;SDS011;65441;44.748;37.600;2023-05-07T11:56:12;8.55;;;2.90;;
76576;SDS011;65441;44.748;37.600;2023-05-07T11:58:42;8.43;;;3.30;;
76576;SDS011;65441;44.748;37.600;2023-05-07T12:01:17;7.45;;;3.20;;
76576;SDS011;65441;44.748;37.600;2023-05-07T12:03:47;11.52;;;3.92;;
76576;SDS011;65441;44.748;37.600;2023-05-07T12:06:16;9.73;;;3.10;;
76576;SDS011;65441;44.748;37.600;2023-05-07T12:08:45;9.80;;;3.42;;
76576;SDS011;65441;44.748;37.600;2023-05-07T12:11:16;9.65;;;3.25;;
76576;SDS011;65441;44.748;37.600;2023-05-07T12:13:53;11.07;;;3.70;;
76576;SDS011;65441;44.748;37.600;2023-05-07T12:16:24;9.48;;;3.60;;
76576;SDS011;65441;44.748;37.600;2023-05-07T12:18:53;9.07;;;3.30;;
76576;SDS011;65441;44.748;37.600;2023-05-07T12:21:23;10.65;;;3.05;;
76576;SDS011;65441;44.748;37.600;2023-05-07T12:23:52;12.65;;;3.55;;
76576;SDS011;65441;44.748;37.600;2023-05-07T12:26:21;12.02;;;3.92;;
76576;SDS011;65441;44.748;37.600;2023-05-07T12:28:51;11.18;;;3.78;;
76576;SDS011;65441;44.748;37.600;2023-05-07T12:31:25;11.88;;;3.40;;
76576;SDS011;65441;44.748;37.600;2023-05-07T12:33:55;10.68;;;3.28;;
76576;SDS011;65441;44.748;37.600;2023-05-07T12:36:24;6.97;;;3.30;;
76576;SDS011;65441;44.748;37.600;2023-05-07T12:38:53;8.57;;;3.22;;
76576;SDS011;65441;44.748;37.600;2023-05-07T12:41:23;7.07;;;3.28;;
76576;SDS011;65441;44.748;37.600;2023-05-07T12:43:59;9.68;;;2.85;;
76576;SDS011;65441;44.748;37.600;2023-05-07T12:46:29;11.20;;;2.97;;
76576;SDS011;65441;44.748;37.600;2023-05-07T12:48:58;10.70;;;3.00;;
76576;SDS011;65441;44.748;37.600;2023-05-07T12:51:30;10.45;;;2.83;;
76576;SDS011;65441;44.748;37.600;2023-05-07T12:53:59;9.13;;;2.80;;
76576;SDS011;65441;44.748;37.600;2023-05-07T12:56:30;11.25;;;3.13;;
76576;SDS011;65441;44.748;37.600;2023-05-07T12:58:59;7.45;;;2.70;;
76576;SDS011;65441;44.748;37.600;2023-05-07T13:01:30;7.72;;;3.00;;
76576;SDS011;65441;44.748;37.600;2023-05-07T13:04:00;8.20;;;3.00;;
76576;SDS011;65441;44.748;37.600;2023-05-07T13:06:31;9.73;;;3.03;;
76576;SDS011;65441;44.748;37.600;2023-05-07T13:09:00;11.23;;;3.35;;
76576;SDS011;65441;44.748;37.600;2023-05-07T13:11:31;11.27;;;3.67;;
76576;SDS011;65441;44.748;37.600;2023-05-07T13:14:01;10.90;;;3.20;;
76576;SDS011;65441;44.748;37.600;2023-05-07T13:16:31;9.10;;;3.75;;
76576;SDS011;65441;44.748;37.600;2023-05-07T13:19:00;10.50;;;3.65;;
76576;SDS011;65441;44.748;37.600;2023-05-07T13:21:30;11.75;;;3.85;;
76576;SDS011;65441;44.748;37.600;2023-05-07T13:23:59;11.88;;;3.85;;
76576;SDS011;65441;44.748;37.600;2023-05-07T13:26:29;13.40;;;3.70;;
76576;SDS011;65441;44.748;37.600;2023-05-07T13:28:59;12.02;;;3.72;;
76576;SDS011;65441;44.748;37.600;2023-05-07T13:31:28;9.13;;;3.55;;
76576;SDS011;65441;44.748;37.600;2023-05-07T13:33:59;10.07;;;3.63;;
76576;SDS011;65441;44.748;37.600;2023-05-07T13:36:28;7.45;;;3.42;;
76576;SDS011;65441;44.748;37.600;2023-05-07T13:38:59;8.38;;;3.58;;
76576;SDS011;65441;44.748;37.600;2023-05-07T13:41:28;8.27;;;3.58;;
76576;SDS011;65441;44.748;37.600;2023-05-07T13:43:58;10.50;;;3.78;;
76576;SDS011;65441;44.748;37.600;2023-05-07T13:46:31;9.65;;;3.83;;
76576;SDS011;65441;44.748;37.600;2023-05-07T13:49:01;12.07;;;3.90;;
76576;SDS011;65441;44.748;37.600;2023-05-07T13:51:30;10.35;;;4.32;;
76576;SDS011;65441;44.748;37.600;2023-05-07T13:54:00;12.88;;;3.90;;
76576;SDS011;65441;44.748;37.600;2023-05-07T13:56:29;9.02;;;2.78;;
76576;SDS011;65441;44.748;37.600;2023-05-07T13:58:59;8.48;;;3.25;;
76576;SDS011;65441;44.748;37.600;2023-05-07T14:01:28;8.85;;;3.22;;
76576;SDS011;65441;44.748;37.600;2023-05-07T14:03:59;8.10;;;2.72;;
76576;SDS011;65441;44.748;37.600;2023-05-07T14:06:30;10.13;;;3.25;;
76576;SDS011;65441;44.748;37.600;2023-05-07T14:08:59;7.72;;;2.88;;
76576;SDS011;65441;44.748;37.600;2023-05-07T14:11:28;11.95;;;2.90;;
76576;SDS011;65441;44.748;37.600;2023-05-07T14:13:57;9.93;;;2.90;;
76576;SDS011;65441;44.748;37.600;2023-05-07T14:16:26;7.38;;;2.88;;
76576;SDS011;65441;44.748;37.600;2023-05-07T14:18:55;9.65;;;3.45;;
76576;SDS011;65441;44.748;37.600;2023-05-07T14:21:25;8.60;;;3.00;;
76576;SDS011;65441;44.748;37.600;2023-05-07T14:23:54;10.38;;;3.30;;
76576;SDS011;65441;44.748;37.600;2023-05-07T14:26:24;9.75;;;3.28;;
76576;SDS011;65441;44.748;37.600;2023-05-07T14:28:53;8.88;;;2.88;;
76576;SDS011;65441;44.748;37.600;2023-05-07T14:31:25;7.28;;;2.80;;
76576;SDS011;65441;44.748;37.600;2023-05-07T14:33:54;8.85;;;2.75;;
76576;SDS011;65441;44.748;37.600;2023-05-07T14:36:28;9.85;;;2.03;;
76576;SDS011;65441;44.748;37.600;2023-05-07T14:38:58;7.78;;;2.17;;
76576;SDS011;65441;44.748;37.600;2023-05-07T14:41:29;9.32;;;1.85;;
76576;SDS011;65441;44.748;37.600;2023-05-07T14:44:00;8.02;;;2.40;;
76576;SDS011;65441;44.748;37.600;2023-05-07T14:46:33;6.38;;;2.17;;
76576;SDS011;65441;44.748;37.600;2023-05-07T14:49:02;7.38;;;1.95;;
76576;SDS011;65441;44.748;37.600;2023-05-07T14:51:33;6.88;;;1.60;;
76576;SDS011;65441;44.748;37.600;2023-05-07T14:54:03;6.93;;;2.13;;
76576;SDS011;65441;44.748;37.600;2023-05-07T14:56:32;5.22;;;1.73;;
76576;SDS011;65441;44.748;37.600;2023-05-07T14:59:01;7.13;;;1.83;;
76576;SDS011;65441;44.748;37.600;2023-05-07T15:01:31;5.57;;;1.92;;
76576;SDS011;65441;44.748;37.600;2023-05-07T15:04:00;5.63;;;1.88;;
76576;SDS011;65441;44.748;37.600;2023-05-07T15:06:29;8.07;;;2.10;;
76576;SDS011;65441;44.748;37.600;2023-05-07T15:08:59;8.98;;;1.90;;
76576;SDS011;65441;44.748;37.600;2023-05-07T15:11:28;5.43;;;2.00;;
76576;SDS011;65441;44.748;37.600;2023-05-07T15:13:57;8.43;;;1.90;;
76576;SDS011;65441;44.748;37.600;2023-05-07T15:16:26;7.38;;;1.90;;